sensor_id;sensor_type;location;lat;lon;timestamp;temperature;humidity
83660;SHT30;73632;50.808;3.422;2024-01-30T00:00:22;9.63;82.37
83660;SHT30;73632;50.808;3.422;2024-01-30T00:02:47;9.62;82.43
83660;SHT30;73632;50.808;3.422;2024-01-30T00:05:13;9.66;82.22
83660;SHT30;73632;50.808;3.422;2024-01-30T00:07:38;9.63;82.24
83660;SHT30;73632;50.808;3.422;2024-01-30T00:10:04;9.62;82.28
83660;SHT30;73632;50.808;3.422;2024-01-30T00:12:31;9.55;82.56
83660;SHT30;73632;50.808;3.422;2024-01-30T00:14:57;9.56;82.69
83660;SHT30;73632;50.808;3.422;2024-01-30T00:17:23;9.60;82.52
83660;SHT30;73632;50.808;3.422;2024-01-30T00:19:50;9.59;82.32
83660;SHT30;73632;50.808;3.422;2024-01-30T00:22:15;9.56;82.45
83660;SHT30;73632;50.808;3.422;2024-01-30T00:24:41;9.59;82.40
83660;SHT30;73632;50.808;3.422;2024-01-30T00:27:08;9.62;82.39
83660;SHT30;73632;50.808;3.422;2024-01-30T00:29:33;9.59;82.30
83660;SHT30;73632;50.808;3.422;2024-01-30T00:31:59;9.60;82.26
83660;SHT30;73632;50.808;3.422;2024-01-30T00:34:25;9.59;82.40
83660;SHT30;73632;50.808;3.422;2024-01-30T00:36:50;9.59;82.29
83660;SHT30;73632;50.808;3.422;2024-01-30T00:39:16;9.48;82.69
83660;SHT30;73632;50.808;3.422;2024-01-30T00:41:41;9.62;82.42
83660;SHT30;73632;50.808;3.422;2024-01-30T00:44:07;9.63;82.35
83660;SHT30;73632;50.808;3.422;2024-01-30T00:46:32;9.69;82.01
83660;SHT30;73632;50.808;3.422;2024-01-30T00:48:58;9.56;82.36
83660;SHT30;73632;50.808;3.422;2024-01-30T00:51:23;9.50;82.76
83660;SHT30;73632;50.808;3.422;2024-01-30T00:53:49;9.62;82.32
83660;SHT30;73632;50.808;3.422;2024-01-30T00:56:14;9.56;82.55
83660;SHT30;73632;50.808;3.422;2024-01-30T00:58:43;9.58;82.74
83660;SHT30;73632;50.808;3.422;2024-01-30T01:01:08;9.55;82.67
83660;SHT30;73632;50.808;3.422;2024-01-30T01:03:34;9.60;82.49
83660;SHT30;73632;50.808;3.422;2024-01-30T01:05:59;9.59;82.58
83660;SHT30;73632;50.808;3.422;2024-01-30T01:08:25;9.59;82.70
83660;SHT30;73632;50.808;3.422;2024-01-30T01:10:50;9.59;82.58
83660;SHT30;73632;50.808;3.422;2024-01-30T01:13:17;9.65;82.46
83660;SHT30;73632;50.808;3.422;2024-01-30T01:15:43;9.68;82.38
83660;SHT30;73632;50.808;3.422;2024-01-30T01:18:08;9.76;82.09
83660;SHT30;73632;50.808;3.422;2024-01-30T01:20:33;9.75;82.11
83660;SHT30;73632;50.808;3.422;2024-01-30T01:22:59;9.68;82.29
83660;SHT30;73632;50.808;3.422;2024-01-30T01:25:24;9.78;82.07
83660;SHT30;73632;50.808;3.422;2024-01-30T01:27:50;9.87;81.78
83660;SHT30;73632;50.808;3.422;2024-01-30T01:30:18;9.83;81.89
83660;SHT30;73632;50.808;3.422;2024-01-30T01:32:49;9.89;81.72
83660;SHT30;73632;50.808;3.422;2024-01-30T01:35:22;9.82;81.93
83660;SHT30;73632;50.808;3.422;2024-01-30T01:37:50;9.93;81.70
83660;SHT30;73632;50.808;3.422;2024-01-30T01:40:23;9.76;82.07
83660;SHT30;73632;50.808;3.422;2024-01-30T01:42:50;9.82;82.12
83660;SHT30;73632;50.808;3.422;2024-01-30T01:45:16;9.92;81.87
83660;SHT30;73632;50.808;3.422;2024-01-30T01:47:42;9.83;82.06
83660;SHT30;73632;50.808;3.422;2024-01-30T01:50:08;9.82;82.18
83660;SHT30;73632;50.808;3.422;2024-01-30T01:52:33;9.73;82.42
83660;SHT30;73632;50.808;3.422;2024-01-30T01:54:59;9.82;82.19
83660;SHT30;73632;50.808;3.422;2024-01-30T01:57:25;9.80;82.24
83660;SHT30;73632;50.808;3.422;2024-01-30T01:59:50;9.89;82.21
83660;SHT30;73632;50.808;3.422;2024-01-30T02:02:17;9.97;81.84
83660;SHT30;73632;50.808;3.422;2024-01-30T02:04:44;9.90;82.05
83660;SHT30;73632;50.808;3.422;2024-01-30T02:07:09;9.92;81.96
83660;SHT30;73632;50.808;3.422;2024-01-30T02:09:35;9.90;82.05
83660;SHT30;73632;50.808;3.422;2024-01-30T02:12:00;9.89;82.15
83660;SHT30;73632;50.808;3.422;2024-01-30T02:14:26;9.90;82.19
83660;SHT30;73632;50.808;3.422;2024-01-30T02:16:51;9.92;82.16
83660;SHT30;73632;50.808;3.422;2024-01-30T02:19:16;9.89;82.19
83660;SHT30;73632;50.808;3.422;2024-01-30T02:21:42;9.83;82.33
83660;SHT30;73632;50.808;3.422;2024-01-30T02:24:08;9.80;82.62
83660;SHT30;73632;50.808;3.422;2024-01-30T02:26:33;9.76;82.60
83660;SHT30;73632;50.808;3.422;2024-01-30T02:28:58;9.86;82.39
83660;SHT30;73632;50.808;3.422;2024-01-30T02:31:25;9.70;82.89
83660;SHT30;73632;50.808;3.422;2024-01-30T02:33:50;9.70;82.98
83660;SHT30;73632;50.808;3.422;2024-01-30T02:36:16;9.73;82.99
83660;SHT30;73632;50.808;3.422;2024-01-30T02:38:41;9.79;83.01
83660;SHT30;73632;50.808;3.422;2024-01-30T02:41:07;9.87;82.64
83660;SHT30;73632;50.808;3.422;2024-01-30T02:43:32;9.76;82.90
83660;SHT30;73632;50.808;3.422;2024-01-30T02:45:57;9.85;82.75
83660;SHT30;73632;50.808;3.422;2024-01-30T02:48:24;9.85;82.73
83660;SHT30;73632;50.808;3.422;2024-01-30T02:50:50;9.89;82.53
83660;SHT30;73632;50.808;3.422;2024-01-30T02:53:15;9.86;82.80
83660;SHT30;73632;50.808;3.422;2024-01-30T02:55:41;9.90;82.74
83660;SHT30;73632;50.808;3.422;2024-01-30T02:58:06;9.94;82.59
83660;SHT30;73632;50.808;3.422;2024-01-30T03:00:32;10.03;82.42
83660;SHT30;73632;50.808;3.422;2024-01-30T03:02:57;10.03;82.37
83660;SHT30;73632;50.808;3.422;2024-01-30T03:05:22;10.02;82.29
83660;SHT30;73632;50.808;3.422;2024-01-30T03:07:48;10.00;82.45
83660;SHT30;73632;50.808;3.422;2024-01-30T03:10:13;10.02;82.27
83660;SHT30;73632;50.808;3.422;2024-01-30T03:12:38;10.07;82.18
83660;SHT30;73632;50.808;3.422;2024-01-30T03:15:04;10.06;82.20
83660;SHT30;73632;50.808;3.422;2024-01-30T03:17:29;10.04;82.37
83660;SHT30;73632;50.808;3.422;2024-01-30T03:19:55;10.04;82.25
83660;SHT30;73632;50.808;3.422;2024-01-30T03:22:20;10.06;82.28
83660;SHT30;73632;50.808;3.422;2024-01-30T03:24:46;10.03;82.32
83660;SHT30;73632;50.808;3.422;2024-01-30T03:27:11;9.99;82.46
83660;SHT30;73632;50.808;3.422;2024-01-30T03:29:36;10.00;82.53
83660;SHT30;73632;50.808;3.422;2024-01-30T03:32:02;10.03;82.42
83660;SHT30;73632;50.808;3.422;2024-01-30T03:34:29;10.04;82.32
83660;SHT30;73632;50.808;3.422;2024-01-30T03:36:54;10.04;82.44
83660;SHT30;73632;50.808;3.422;2024-01-30T03:39:20;10.04;82.55
83660;SHT30;73632;50.808;3.422;2024-01-30T03:41:45;10.02;82.34
83660;SHT30;73632;50.808;3.422;2024-01-30T03:44:11;10.04;82.36
83660;SHT30;73632;50.808;3.422;2024-01-30T03:46:36;10.04;82.28
83660;SHT30;73632;50.808;3.422;2024-01-30T03:49:02;10.00;82.35
83660;SHT30;73632;50.808;3.422;2024-01-30T03:51:27;10.02;82.39
83660;SHT30;73632;50.808;3.422;2024-01-30T03:53:53;10.03;82.36
83660;SHT30;73632;50.808;3.422;2024-01-30T03:56:18;10.04;82.29
83660;SHT30;73632;50.808;3.422;2024-01-30T03:58:44;10.04;82.29
83660;SHT30;73632;50.808;3.422;2024-01-30T04:01:13;10.13;81.94
83660;SHT30;73632;50.808;3.422;2024-01-30T04:03:39;10.09;82.03
83660;SHT30;73632;50.808;3.422;2024-01-30T04:06:04;10.10;81.96
83660;SHT30;73632;50.808;3.422;2024-01-30T04:08:30;10.12;82.00
83660;SHT30;73632;50.808;3.422;2024-01-30T04:10:55;10.10;81.90
83660;SHT30;73632;50.808;3.422;2024-01-30T04:13:21;10.12;81.96
83660;SHT30;73632;50.808;3.422;2024-01-30T04:15:46;9.99;82.31
83660;SHT30;73632;50.808;3.422;2024-01-30T04:18:11;9.92;82.71
83660;SHT30;73632;50.808;3.422;2024-01-30T04:20:37;9.90;82.72
83660;SHT30;73632;50.808;3.422;2024-01-30T04:23:02;9.90;82.81
83660;SHT30;73632;50.808;3.422;2024-01-30T04:25:28;9.85;83.08
83660;SHT30;73632;50.808;3.422;2024-01-30T04:27:53;9.85;83.00
83660;SHT30;73632;50.808;3.422;2024-01-30T04:30:18;9.97;82.49
83660;SHT30;73632;50.808;3.422;2024-01-30T04:32:44;9.97;82.49
83660;SHT30;73632;50.808;3.422;2024-01-30T04:35:09;9.83;82.72
83660;SHT30;73632;50.808;3.422;2024-01-30T04:37:35;9.82;82.99
83660;SHT30;73632;50.808;3.422;2024-01-30T04:40:00;9.82;83.01
83660;SHT30;73632;50.808;3.422;2024-01-30T04:42:26;9.82;82.98
83660;SHT30;73632;50.808;3.422;2024-01-30T04:44:51;9.85;82.94
83660;SHT30;73632;50.808;3.422;2024-01-30T04:47:17;9.78;83.21
83660;SHT30;73632;50.808;3.422;2024-01-30T04:49:42;9.73;83.10
83660;SHT30;73632;50.808;3.422;2024-01-30T04:52:08;9.68;83.27
83660;SHT30;73632;50.808;3.422;2024-01-30T04:54:34;9.73;83.12
83660;SHT30;73632;50.808;3.422;2024-01-30T04:57:00;9.75;83.04
83660;SHT30;73632;50.808;3.422;2024-01-30T04:59:26;9.79;82.73
83660;SHT30;73632;50.808;3.422;2024-01-30T05:01:51;9.82;82.94
83660;SHT30;73632;50.808;3.422;2024-01-30T05:04:16;9.75;83.04
83660;SHT30;73632;50.808;3.422;2024-01-30T05:06:42;9.73;83.05
83660;SHT30;73632;50.808;3.422;2024-01-30T05:09:08;9.68;83.23
83660;SHT30;73632;50.808;3.422;2024-01-30T05:11:40;9.72;83.02
83660;SHT30;73632;50.808;3.422;2024-01-30T05:14:06;9.60;83.56
83660;SHT30;73632;50.808;3.422;2024-01-30T05:16:32;9.59;83.75
83660;SHT30;73632;50.808;3.422;2024-01-30T05:18:58;9.60;83.58
83660;SHT30;73632;50.808;3.422;2024-01-30T05:21:23;9.58;83.62
83660;SHT30;73632;50.808;3.422;2024-01-30T05:23:49;9.59;83.73
83660;SHT30;73632;50.808;3.422;2024-01-30T05:26:14;9.53;83.98
83660;SHT30;73632;50.808;3.422;2024-01-30T05:28:40;9.62;83.80
83660;SHT30;73632;50.808;3.422;2024-01-30T05:31:05;9.79;83.26
83660;SHT30;73632;50.808;3.422;2024-01-30T05:33:31;9.79;83.46
83660;SHT30;73632;50.808;3.422;2024-01-30T05:35:56;9.83;83.33
83660;SHT30;73632;50.808;3.422;2024-01-30T05:38:21;9.87;83.07
83660;SHT30;73632;50.808;3.422;2024-01-30T05:40:47;9.99;82.81
83660;SHT30;73632;50.808;3.422;2024-01-30T05:43:12;10.03;82.73
83660;SHT30;73632;50.808;3.422;2024-01-30T05:45:38;10.07;82.64
83660;SHT30;73632;50.808;3.422;2024-01-30T05:48:04;10.12;82.60
83660;SHT30;73632;50.808;3.422;2024-01-30T05:50:30;10.12;82.45
83660;SHT30;73632;50.808;3.422;2024-01-30T05:52:55;10.14;82.47
83660;SHT30;73632;50.808;3.422;2024-01-30T05:55:21;10.07;82.64
83660;SHT30;73632;50.808;3.422;2024-01-30T05:57:46;10.10;82.56
83660;SHT30;73632;50.808;3.422;2024-01-30T06:00:12;10.17;82.38
83660;SHT30;73632;50.808;3.422;2024-01-30T06:02:38;10.18;82.39
83660;SHT30;73632;50.808;3.422;2024-01-30T06:05:03;10.21;82.28
83660;SHT30;73632;50.808;3.422;2024-01-30T06:07:29;10.26;82.10
83660;SHT30;73632;50.808;3.422;2024-01-30T06:09:54;10.29;82.10
83660;SHT30;73632;50.808;3.422;2024-01-30T06:12:19;10.32;82.02
83660;SHT30;73632;50.808;3.422;2024-01-30T06:14:45;10.30;82.01
83660;SHT30;73632;50.808;3.422;2024-01-30T06:17:10;10.32;81.94
83660;SHT30;73632;50.808;3.422;2024-01-30T06:19:37;10.26;82.00
83660;SHT30;73632;50.808;3.422;2024-01-30T06:22:04;10.36;81.81
83660;SHT30;73632;50.808;3.422;2024-01-30T06:24:29;10.30;81.97
83660;SHT30;73632;50.808;3.422;2024-01-30T06:26:55;10.38;81.84
83660;SHT30;73632;50.808;3.422;2024-01-30T06:29:20;10.37;81.92
83660;SHT30;73632;50.808;3.422;2024-01-30T06:31:46;10.34;82.14
83660;SHT30;73632;50.808;3.422;2024-01-30T06:34:11;10.36;82.03
83660;SHT30;73632;50.808;3.422;2024-01-30T06:36:37;10.36;82.18
83660;SHT30;73632;50.808;3.422;2024-01-30T06:39:03;10.43;82.10
83660;SHT30;73632;50.808;3.422;2024-01-30T06:41:28;10.41;82.21
83660;SHT30;73632;50.808;3.422;2024-01-30T06:43:55;10.40;82.21
83660;SHT30;73632;50.808;3.422;2024-01-30T06:46:20;10.47;81.99
83660;SHT30;73632;50.808;3.422;2024-01-30T06:48:45;10.45;82.04
83660;SHT30;73632;50.808;3.422;2024-01-30T06:51:11;10.44;82.07
83660;SHT30;73632;50.808;3.422;2024-01-30T06:53:37;10.44;82.10
83660;SHT30;73632;50.808;3.422;2024-01-30T06:56:03;10.44;82.10
83660;SHT30;73632;50.808;3.422;2024-01-30T06:58:28;10.47;82.23
83660;SHT30;73632;50.808;3.422;2024-01-30T07:00:54;10.47;82.17
83660;SHT30;73632;50.808;3.422;2024-01-30T07:03:20;10.50;82.10
83660;SHT30;73632;50.808;3.422;2024-01-30T07:05:45;10.47;82.17
83660;SHT30;73632;50.808;3.422;2024-01-30T07:08:11;10.41;82.43
83660;SHT30;73632;50.808;3.422;2024-01-30T07:10:36;10.47;82.22
83660;SHT30;73632;50.808;3.422;2024-01-30T07:13:02;10.50;82.19
83660;SHT30;73632;50.808;3.422;2024-01-30T07:15:27;10.51;82.17
83660;SHT30;73632;50.808;3.422;2024-01-30T07:17:52;10.47;82.21
83660;SHT30;73632;50.808;3.422;2024-01-30T07:20:18;10.53;82.24
83660;SHT30;73632;50.808;3.422;2024-01-30T07:22:45;10.43;82.44
83660;SHT30;73632;50.808;3.422;2024-01-30T07:25:11;10.44;82.50
83660;SHT30;73632;50.808;3.422;2024-01-30T07:27:36;10.50;82.16
83660;SHT30;73632;50.808;3.422;2024-01-30T07:30:02;10.51;82.32
83660;SHT30;73632;50.808;3.422;2024-01-30T07:32:27;10.57;82.14
83660;SHT30;73632;50.808;3.422;2024-01-30T07:34:53;10.43;82.44
83660;SHT30;73632;50.808;3.422;2024-01-30T07:37:18;10.50;82.38
83660;SHT30;73632;50.808;3.422;2024-01-30T07:39:44;10.45;82.50
83660;SHT30;73632;50.808;3.422;2024-01-30T07:42:10;10.43;82.79
83660;SHT30;73632;50.808;3.422;2024-01-30T07:44:35;10.50;82.67
83660;SHT30;73632;50.808;3.422;2024-01-30T07:47:01;10.50;82.70
83660;SHT30;73632;50.808;3.422;2024-01-30T07:49:28;10.54;82.67
83660;SHT30;73632;50.808;3.422;2024-01-30T07:51:53;10.63;82.50
83660;SHT30;73632;50.808;3.422;2024-01-30T07:54:18;10.60;82.68
83660;SHT30;73632;50.808;3.422;2024-01-30T07:56:44;10.61;82.56
83660;SHT30;73632;50.808;3.422;2024-01-30T07:59:10;10.63;82.57
83660;SHT30;73632;50.808;3.422;2024-01-30T08:01:37;10.63;82.70
83660;SHT30;73632;50.808;3.422;2024-01-30T08:04:04;10.64;82.71
83660;SHT30;73632;50.808;3.422;2024-01-30T08:06:30;10.54;83.17
83660;SHT30;73632;50.808;3.422;2024-01-30T08:08:55;10.51;83.49
83660;SHT30;73632;50.808;3.422;2024-01-30T08:11:22;10.57;83.41
83660;SHT30;73632;50.808;3.422;2024-01-30T08:13:52;10.60;83.31
83660;SHT30;73632;50.808;3.422;2024-01-30T08:16:17;10.57;83.41
83660;SHT30;73632;50.808;3.422;2024-01-30T08:18:43;10.51;83.66
83660;SHT30;73632;50.808;3.422;2024-01-30T08:21:08;10.50;83.66
83660;SHT30;73632;50.808;3.422;2024-01-30T08:23:34;10.58;83.59
83660;SHT30;73632;50.808;3.422;2024-01-30T08:25:59;10.53;83.77
83660;SHT30;73632;50.808;3.422;2024-01-30T08:28:25;10.57;83.56
83660;SHT30;73632;50.808;3.422;2024-01-30T08:30:51;10.57;83.51
83660;SHT30;73632;50.808;3.422;2024-01-30T08:33:17;10.51;83.94
83660;SHT30;73632;50.808;3.422;2024-01-30T08:35:45;10.57;83.73
83660;SHT30;73632;50.808;3.422;2024-01-30T08:38:11;10.65;83.51
83660;SHT30;73632;50.808;3.422;2024-01-30T08:40:37;10.68;83.50
83660;SHT30;73632;50.808;3.422;2024-01-30T08:43:03;10.77;83.02
83660;SHT30;73632;50.808;3.422;2024-01-30T08:45:29;10.77;82.98
83660;SHT30;73632;50.808;3.422;2024-01-30T08:47:55;10.84;82.56
83660;SHT30;73632;50.808;3.422;2024-01-30T08:50:21;10.85;81.94
83660;SHT30;73632;50.808;3.422;2024-01-30T08:52:46;10.85;81.30
83660;SHT30;73632;50.808;3.422;2024-01-30T08:55:12;10.95;80.71
83660;SHT30;73632;50.808;3.422;2024-01-30T08:57:37;11.01;79.84
83660;SHT30;73632;50.808;3.422;2024-01-30T09:00:03;11.11;79.25
83660;SHT30;73632;50.808;3.422;2024-01-30T09:02:32;11.22;78.93
83660;SHT30;73632;50.808;3.422;2024-01-30T09:04:57;11.18;78.77
83660;SHT30;73632;50.808;3.422;2024-01-30T09:07:23;11.14;78.34
83660;SHT30;73632;50.808;3.422;2024-01-30T09:09:48;11.22;77.84
83660;SHT30;73632;50.808;3.422;2024-01-30T09:12:14;11.18;77.09
83660;SHT30;73632;50.808;3.422;2024-01-30T09:14:40;11.05;77.32
83660;SHT30;73632;50.808;3.422;2024-01-30T09:17:06;10.99;77.05
83660;SHT30;73632;50.808;3.422;2024-01-30T09:19:31;10.98;77.10
83660;SHT30;73632;50.808;3.422;2024-01-30T09:21:57;10.95;77.40
83660;SHT30;73632;50.808;3.422;2024-01-30T09:24:22;10.95;77.49
83660;SHT30;73632;50.808;3.422;2024-01-30T09:26:47;10.94;77.60
83660;SHT30;73632;50.808;3.422;2024-01-30T09:29:13;10.97;77.53
83660;SHT30;73632;50.808;3.422;2024-01-30T09:31:38;10.89;77.65
83660;SHT30;73632;50.808;3.422;2024-01-30T09:34:04;10.88;77.51
83660;SHT30;73632;50.808;3.422;2024-01-30T09:36:29;10.77;77.63
83660;SHT30;73632;50.808;3.422;2024-01-30T09:38:54;10.71;77.78
83660;SHT30;73632;50.808;3.422;2024-01-30T09:41:23;10.71;77.68
83660;SHT30;73632;50.808;3.422;2024-01-30T09:43:50;10.63;77.04
83660;SHT30;73632;50.808;3.422;2024-01-30T09:46:17;10.57;76.95
83660;SHT30;73632;50.808;3.422;2024-01-30T09:48:46;10.48;77.54
83660;SHT30;73632;50.808;3.422;2024-01-30T09:51:14;10.51;76.06
83660;SHT30;73632;50.808;3.422;2024-01-30T09:53:41;10.50;75.93
83660;SHT30;73632;50.808;3.422;2024-01-30T09:56:07;10.47;75.92
83660;SHT30;73632;50.808;3.422;2024-01-30T09:58:33;10.41;76.22
83660;SHT30;73632;50.808;3.422;2024-01-30T10:00:58;10.48;76.04
83660;SHT30;73632;50.808;3.422;2024-01-30T10:03:24;10.60;75.65
83660;SHT30;73632;50.808;3.422;2024-01-30T10:05:51;10.55;75.83
83660;SHT30;73632;50.808;3.422;2024-01-30T10:08:18;10.58;75.90
83660;SHT30;73632;50.808;3.422;2024-01-30T10:10:49;10.54;75.72
83660;SHT30;73632;50.808;3.422;2024-01-30T10:13:15;10.57;75.86
83660;SHT30;73632;50.808;3.422;2024-01-30T10:15:41;10.54;75.76
83660;SHT30;73632;50.808;3.422;2024-01-30T10:18:06;10.60;75.86
83660;SHT30;73632;50.808;3.422;2024-01-30T10:20:34;10.61;76.05
83660;SHT30;73632;50.808;3.422;2024-01-30T10:22:59;10.68;76.11
83660;SHT30;73632;50.808;3.422;2024-01-30T10:25:25;10.85;75.45
83660;SHT30;73632;50.808;3.422;2024-01-30T10:27:54;10.94;74.48
83660;SHT30;73632;50.808;3.422;2024-01-30T10:30:21;10.95;74.29
83660;SHT30;73632;50.808;3.422;2024-01-30T10:32:46;10.82;74.57
83660;SHT30;73632;50.808;3.422;2024-01-30T10:35:12;10.77;74.64
83660;SHT30;73632;50.808;3.422;2024-01-30T10:37:38;10.92;74.64
83660;SHT30;73632;50.808;3.422;2024-01-30T10:40:03;11.08;73.35
83660;SHT30;73632;50.808;3.422;2024-01-30T10:42:32;11.26;74.13
83660;SHT30;73632;50.808;3.422;2024-01-30T10:45:03;11.28;72.07
83660;SHT30;73632;50.808;3.422;2024-01-30T10:47:34;11.25;71.99
83660;SHT30;73632;50.808;3.422;2024-01-30T10:50:00;11.32;71.68
83660;SHT30;73632;50.808;3.422;2024-01-30T10:52:28;11.09;72.01
83660;SHT30;73632;50.808;3.422;2024-01-30T10:54:55;11.14;72.45
83660;SHT30;73632;50.808;3.422;2024-01-30T10:57:23;11.21;70.55
83660;SHT30;73632;50.808;3.422;2024-01-30T10:59:49;11.74;73.62
83660;SHT30;73632;50.808;3.422;2024-01-30T11:02:17;12.10;68.89
83660;SHT30;73632;50.808;3.422;2024-01-30T11:04:42;12.03;68.66
83660;SHT30;73632;50.808;3.422;2024-01-30T11:07:17;11.96;68.56
83660;SHT30;73632;50.808;3.422;2024-01-30T11:09:53;11.90;68.83
83660;SHT30;73632;50.808;3.422;2024-01-30T11:12:23;11.60;68.93
83660;SHT30;73632;50.808;3.422;2024-01-30T11:14:49;11.49;69.49
83660;SHT30;73632;50.808;3.422;2024-01-30T11:17:15;11.38;70.10
83660;SHT30;73632;50.808;3.422;2024-01-30T11:19:41;11.28;70.66
83660;SHT30;73632;50.808;3.422;2024-01-30T11:22:07;11.23;70.87
83660;SHT30;73632;50.808;3.422;2024-01-30T11:24:41;11.04;70.04
83660;SHT30;73632;50.808;3.422;2024-01-30T11:27:10;10.98;70.92
83660;SHT30;73632;50.808;3.422;2024-01-30T11:29:36;10.97;71.59
83660;SHT30;73632;50.808;3.422;2024-01-30T11:32:02;11.07;70.52
83660;SHT30;73632;50.808;3.422;2024-01-30T11:34:27;10.92;70.60
83660;SHT30;73632;50.808;3.422;2024-01-30T11:36:58;11.05;70.56
83660;SHT30;73632;50.808;3.422;2024-01-30T11:39:25;11.28;69.06
83660;SHT30;73632;50.808;3.422;2024-01-30T11:41:52;11.52;68.18
83660;SHT30;73632;50.808;3.422;2024-01-30T11:44:19;11.40;69.25
83660;SHT30;73632;50.808;3.422;2024-01-30T11:46:49;11.28;69.33
83660;SHT30;73632;50.808;3.422;2024-01-30T11:49:16;11.38;68.71
83660;SHT30;73632;50.808;3.422;2024-01-30T11:51:41;11.47;68.89
83660;SHT30;73632;50.808;3.422;2024-01-30T11:54:07;11.39;69.07
83660;SHT30;73632;50.808;3.422;2024-01-30T11:56:33;11.29;69.23
83660;SHT30;73632;50.808;3.422;2024-01-30T11:58:58;11.32;69.69
83660;SHT30;73632;50.808;3.422;2024-01-30T12:01:26;11.22;69.71
83660;SHT30;73632;50.808;3.422;2024-01-30T12:03:51;11.18;70.73
83660;SHT30;73632;50.808;3.422;2024-01-30T12:06:17;11.05;70.33
83660;SHT30;73632;50.808;3.422;2024-01-30T12:08:43;10.91;70.91
83660;SHT30;73632;50.808;3.422;2024-01-30T12:11:09;10.82;71.53
83660;SHT30;73632;50.808;3.422;2024-01-30T12:13:35;10.74;71.65
83660;SHT30;73632;50.808;3.422;2024-01-30T12:16:00;10.75;71.72
83660;SHT30;73632;50.808;3.422;2024-01-30T12:18:26;10.75;72.07
83660;SHT30;73632;50.808;3.422;2024-01-30T12:21:01;10.82;72.17
83660;SHT30;73632;50.808;3.422;2024-01-30T12:23:29;10.81;72.55
83660;SHT30;73632;50.808;3.422;2024-01-30T12:25:55;10.79;72.87
83660;SHT30;73632;50.808;3.422;2024-01-30T12:28:20;10.68;73.17
83660;SHT30;73632;50.808;3.422;2024-01-30T12:30:46;10.82;72.65
83660;SHT30;73632;50.808;3.422;2024-01-30T12:33:18;10.82;73.14
83660;SHT30;73632;50.808;3.422;2024-01-30T12:35:47;10.74;73.08
83660;SHT30;73632;50.808;3.422;2024-01-30T12:38:15;10.68;73.17
83660;SHT30;73632;50.808;3.422;2024-01-30T12:40:41;10.68;73.39
83660;SHT30;73632;50.808;3.422;2024-01-30T12:43:06;10.61;73.15
83660;SHT30;73632;50.808;3.422;2024-01-30T12:45:32;10.60;72.98
83660;SHT30;73632;50.808;3.422;2024-01-30T12:47:57;10.57;72.96
83660;SHT30;73632;50.808;3.422;2024-01-30T12:50:23;10.51;73.32
83660;SHT30;73632;50.808;3.422;2024-01-30T12:52:49;10.36;73.99
83660;SHT30;73632;50.808;3.422;2024-01-30T12:55:14;10.38;74.54
83660;SHT30;73632;50.808;3.422;2024-01-30T12:57:40;10.26;74.56
83660;SHT30;73632;50.808;3.422;2024-01-30T13:00:06;10.26;74.67
83660;SHT30;73632;50.808;3.422;2024-01-30T13:02:34;10.27;74.34
83660;SHT30;73632;50.808;3.422;2024-01-30T13:05:02;10.26;74.25
83660;SHT30;73632;50.808;3.422;2024-01-30T13:07:28;10.38;73.13
83660;SHT30;73632;50.808;3.422;2024-01-30T13:09:53;10.45;72.58
83660;SHT30;73632;50.808;3.422;2024-01-30T13:12:18;10.36;72.30
83660;SHT30;73632;50.808;3.422;2024-01-30T13:14:44;10.41;72.61
83660;SHT30;73632;50.808;3.422;2024-01-30T13:17:09;10.36;71.99
83660;SHT30;73632;50.808;3.422;2024-01-30T13:19:35;10.18;71.59
83660;SHT30;73632;50.808;3.422;2024-01-30T13:22:00;10.29;71.23
83660;SHT30;73632;50.808;3.422;2024-01-30T13:24:25;10.18;71.02
83660;SHT30;73632;50.808;3.422;2024-01-30T13:26:52;10.24;70.59
83660;SHT30;73632;50.808;3.422;2024-01-30T13:29:18;10.23;70.40
83660;SHT30;73632;50.808;3.422;2024-01-30T13:31:44;10.27;70.50
83660;SHT30;73632;50.808;3.422;2024-01-30T13:34:11;10.24;71.12
83660;SHT30;73632;50.808;3.422;2024-01-30T13:36:38;10.33;71.30
83660;SHT30;73632;50.808;3.422;2024-01-30T13:39:03;10.33;71.77
83660;SHT30;73632;50.808;3.422;2024-01-30T13:41:29;10.38;70.98
83660;SHT30;73632;50.808;3.422;2024-01-30T13:43:55;10.34;70.35
83660;SHT30;73632;50.808;3.422;2024-01-30T13:46:20;10.33;68.78
83660;SHT30;73632;50.808;3.422;2024-01-30T13:48:46;10.29;68.76
83660;SHT30;73632;50.808;3.422;2024-01-30T13:51:11;10.29;69.13
83660;SHT30;73632;50.808;3.422;2024-01-30T13:53:38;10.26;69.32
83660;SHT30;73632;50.808;3.422;2024-01-30T13:56:03;10.32;69.30
83660;SHT30;73632;50.808;3.422;2024-01-30T13:58:29;10.48;68.82
83660;SHT30;73632;50.808;3.422;2024-01-30T14:00:54;10.47;69.21
83660;SHT30;73632;50.808;3.422;2024-01-30T14:03:20;10.63;68.31
83660;SHT30;73632;50.808;3.422;2024-01-30T14:05:46;10.61;68.64
83660;SHT30;73632;50.808;3.422;2024-01-30T14:08:11;10.68;68.43
83660;SHT30;73632;50.808;3.422;2024-01-30T14:10:36;10.60;69.23
83660;SHT30;73632;50.808;3.422;2024-01-30T14:13:02;10.65;69.88
83660;SHT30;73632;50.808;3.422;2024-01-30T14:15:27;10.64;68.93
83660;SHT30;73632;50.808;3.422;2024-01-30T14:17:53;10.54;69.14
83660;SHT30;73632;50.808;3.422;2024-01-30T14:20:19;10.55;69.39
83660;SHT30;73632;50.808;3.422;2024-01-30T14:22:45;10.43;69.77
83660;SHT30;73632;50.808;3.422;2024-01-30T14:25:10;10.45;70.16
83660;SHT30;73632;50.808;3.422;2024-01-30T14:27:36;10.32;70.82
83660;SHT30;73632;50.808;3.422;2024-01-30T14:30:02;10.26;70.30
83660;SHT30;73632;50.808;3.422;2024-01-30T14:32:28;10.18;70.63
83660;SHT30;73632;50.808;3.422;2024-01-30T14:34:53;10.14;71.14
83660;SHT30;73632;50.808;3.422;2024-01-30T14:37:20;10.18;71.08
83660;SHT30;73632;50.808;3.422;2024-01-30T14:39:46;10.18;70.90
83660;SHT30;73632;50.808;3.422;2024-01-30T14:42:13;10.13;71.45
83660;SHT30;73632;50.808;3.422;2024-01-30T14:44:38;10.12;71.58
83660;SHT30;73632;50.808;3.422;2024-01-30T14:47:04;10.03;71.55
83660;SHT30;73632;50.808;3.422;2024-01-30T14:49:30;9.97;72.38
83660;SHT30;73632;50.808;3.422;2024-01-30T14:51:55;10.04;72.07
83660;SHT30;73632;50.808;3.422;2024-01-30T14:54:21;9.99;72.14
83660;SHT30;73632;50.808;3.422;2024-01-30T14:56:46;10.10;73.17
83660;SHT30;73632;50.808;3.422;2024-01-30T14:59:11;10.03;72.69
83660;SHT30;73632;50.808;3.422;2024-01-30T15:01:37;9.99;73.01
83660;SHT30;73632;50.808;3.422;2024-01-30T15:04:02;9.93;73.50
83660;SHT30;73632;50.808;3.422;2024-01-30T15:06:28;9.87;73.90
83660;SHT30;73632;50.808;3.422;2024-01-30T15:08:54;9.96;73.83
83660;SHT30;73632;50.808;3.422;2024-01-30T15:11:20;10.03;73.22
83660;SHT30;73632;50.808;3.422;2024-01-30T15:13:45;9.82;74.01
83660;SHT30;73632;50.808;3.422;2024-01-30T15:16:11;9.86;74.25
83660;SHT30;73632;50.808;3.422;2024-01-30T15:18:37;9.94;76.76
83660;SHT30;73632;50.808;3.422;2024-01-30T15:21:02;9.86;75.01
83660;SHT30;73632;50.808;3.422;2024-01-30T15:23:28;9.78;76.02
83660;SHT30;73632;50.808;3.422;2024-01-30T15:25:53;9.85;76.20